sensor_id;sensor_type;location;lat;lon;timestamp;P1;durP1;ratioP1;P2;durP2;ratioP2
79414;SDS011;68864;44.972;19.612;2024-03-23T00:53:18;25.48;;;12.70;;
79414;SDS011;68864;44.972;19.612;2024-03-23T00:55:45;25.50;;;11.90;;
79414;SDS011;68864;44.972;19.612;2024-03-23T00:58:11;33.75;;;18.73;;
79414;SDS011;68864;44.972;19.612;2024-03-23T01:00:38;29.15;;;13.27;;
79414;SDS011;68864;44.972;19.612;2024-03-23T01:03:04;31.40;;;13.57;;
79414;SDS011;68864;44.972;19.612;2024-03-23T01:07:57;26.00;;;16.10;;
79414;SDS011;68864;44.972;19.612;2024-03-23T01:10:25;24.58;;;15.07;;
79414;SDS011;68864;44.972;19.612;2024-03-23T01:12:51;25.67;;;12.63;;
79414;SDS011;68864;44.972;19.612;2024-03-23T01:15:18;25.73;;;11.63;;
79414;SDS011;68864;44.972;19.612;2024-03-23T01:17:44;22.75;;;11.23;;
79414;SDS011;68864;44.972;19.612;2024-03-23T01:20:11;23.13;;;11.00;;
79414;SDS011;68864;44.972;19.612;2024-03-23T01:22:37;26.88;;;10.27;;
79414;SDS011;68864;44.972;19.612;2024-03-23T01:25:05;18.88;;;9.68;;
79414;SDS011;68864;44.972;19.612;2024-03-23T01:27:32;22.05;;;9.88;;
79414;SDS011;68864;44.972;19.612;2024-03-23T01:30:00;22.80;;;11.43;;
79414;SDS011;68864;44.972;19.612;2024-03-23T01:32:26;23.65;;;10.27;;
79414;SDS011;68864;44.972;19.612;2024-03-23T01:34:53;24.92;;;12.88;;
79414;SDS011;68864;44.972;19.612;2024-03-23T01:37:19;26.05;;;12.02;;
79414;SDS011;68864;44.972;19.612;2024-03-23T01:39:46;24.85;;;11.43;;
79414;SDS011;68864;44.972;19.612;2024-03-23T01:42:12;28.13;;;13.68;;
79414;SDS011;68864;44.972;19.612;2024-03-23T01:44:40;34.58;;;17.55;;
79414;SDS011;68864;44.972;19.612;2024-03-23T01:47:06;26.65;;;13.48;;
79414;SDS011;68864;44.972;19.612;2024-03-23T01:49:34;28.70;;;15.23;;
79414;SDS011;68864;44.972;19.612;2024-03-23T01:52:01;27.08;;;13.25;;
79414;SDS011;68864;44.972;19.612;2024-03-23T01:54:28;24.85;;;13.45;;
79414;SDS011;68864;44.972;19.612;2024-03-23T01:56:55;27.52;;;14.15;;
79414;SDS011;68864;44.972;19.612;2024-03-23T01:59:23;26.98;;;15.45;;
79414;SDS011;68864;44.972;19.612;2024-03-23T02:01:50;23.85;;;13.18;;
79414;SDS011;68864;44.972;19.612;2024-03-23T02:04:17;25.38;;;12.63;;
79414;SDS011;68864;44.972;19.612;2024-03-23T02:06:43;30.50;;;22.10;;
79414;SDS011;68864;44.972;19.612;2024-03-23T02:09:11;27.83;;;15.20;;
79414;SDS011;68864;44.972;19.612;2024-03-23T02:11:37;29.98;;;20.85;;
79414;SDS011;68864;44.972;19.612;2024-03-23T02:14:04;38.03;;;22.42;;
79414;SDS011;68864;44.972;19.612;2024-03-23T02:16:30;38.70;;;16.88;;
79414;SDS011;68864;44.972;19.612;2024-03-23T02:18:59;37.25;;;18.52;;
79414;SDS011;68864;44.972;19.612;2024-03-23T02:21:25;37.17;;;17.80;;
79414;SDS011;68864;44.972;19.612;2024-03-23T02:23:54;44.60;;;25.60;;
79414;SDS011;68864;44.972;19.612;2024-03-23T02:26:20;51.92;;;27.50;;
79414;SDS011;68864;44.972;19.612;2024-03-23T02:28:47;38.28;;;18.15;;
79414;SDS011;68864;44.972;19.612;2024-03-23T02:31:13;32.67;;;16.60;;
79414;SDS011;68864;44.972;19.612;2024-03-23T02:33:40;32.20;;;16.13;;
79414;SDS011;68864;44.972;19.612;2024-03-23T02:36:07;31.85;;;19.95;;
79414;SDS011;68864;44.972;19.612;2024-03-23T02:38:34;34.20;;;14.07;;
79414;SDS011;68864;44.972;19.612;2024-03-23T02:41:04;28.45;;;18.50;;
79414;SDS011;68864;44.972;19.612;2024-03-23T02:43:31;22.40;;;12.52;;
79414;SDS011;68864;44.972;19.612;2024-03-23T02:45:57;24.63;;;11.73;;
79414;SDS011;68864;44.972;19.612;2024-03-23T02:48:26;22.73;;;11.15;;
79414;SDS011;68864;44.972;19.612;2024-03-23T02:50:52;26.25;;;16.48;;
79414;SDS011;68864;44.972;19.612;2024-03-23T02:53:19;29.45;;;20.33;;
79414;SDS011;68864;44.972;19.612;2024-03-23T02:55:45;22.25;;;13.23;;
79414;SDS011;68864;44.972;19.612;2024-03-23T02:58:14;24.10;;;12.80;;
79414;SDS011;68864;44.972;19.612;2024-03-23T03:00:40;32.63;;;20.05;;
79414;SDS011;68864;44.972;19.612;2024-03-23T03:03:07;31.05;;;14.63;;
79414;SDS011;68864;44.972;19.612;2024-03-23T03:05:34;30.27;;;16.45;;
79414;SDS011;68864;44.972;19.612;2024-03-23T03:08:01;32.55;;;15.75;;
79414;SDS011;68864;44.972;19.612;2024-03-23T03:10:27;34.85;;;17.70;;
79414;SDS011;68864;44.972;19.612;2024-03-23T03:12:54;34.92;;;21.70;;
79414;SDS011;68864;44.972;19.612;2024-03-23T03:15:21;29.98;;;16.52;;
79414;SDS011;68864;44.972;19.612;2024-03-23T03:17:48;32.45;;;17.63;;
79414;SDS011;68864;44.972;19.612;2024-03-23T03:20:14;35.67;;;16.25;;
79414;SDS011;68864;44.972;19.612;2024-03-23T03:22:43;36.50;;;22.48;;
79414;SDS011;68864;44.972;19.612;2024-03-23T03:25:09;38.55;;;23.38;;
79414;SDS011;68864;44.972;19.612;2024-03-23T03:27:36;43.20;;;19.25;;
79414;SDS011;68864;44.972;19.612;2024-03-23T03:30:02;37.70;;;18.58;;
79414;SDS011;68864;44.972;19.612;2024-03-23T03:32:32;34.45;;;19.50;;
79414;SDS011;68864;44.972;19.612;2024-03-23T03:34:58;38.17;;;21.02;;
79414;SDS011;68864;44.972;19.612;2024-03-23T03:37:25;39.50;;;21.25;;
79414;SDS011;68864;44.972;19.612;2024-03-23T03:39:51;50.13;;;29.05;;
79414;SDS011;68864;44.972;19.612;2024-03-23T03:42:19;36.85;;;26.23;;
79414;SDS011;68864;44.972;19.612;2024-03-23T03:44:44;39.20;;;22.13;;
79414;SDS011;68864;44.972;19.612;2024-03-23T03:47:12;34.13;;;19.65;;
79414;SDS011;68864;44.972;19.612;2024-03-23T03:49:39;38.58;;;19.10;;
79414;SDS011;68864;44.972;19.612;2024-03-23T03:52:06;35.58;;;19.73;;
79414;SDS011;68864;44.972;19.612;2024-03-23T03:54:33;43.10;;;27.25;;
79414;SDS011;68864;44.972;19.612;2024-03-23T03:57:00;39.67;;;23.38;;
79414;SDS011;68864;44.972;19.612;2024-03-23T03:59:26;45.88;;;27.25;;
79414;SDS011;68864;44.972;19.612;2024-03-23T04:01:53;41.92;;;29.30;;
79414;SDS011;68864;44.972;19.612;2024-03-23T04:04:19;42.38;;;27.77;;
79414;SDS011;68864;44.972;19.612;2024-03-23T04:06:49;34.90;;;18.30;;
79414;SDS011;68864;44.972;19.612;2024-03-23T04:09:15;33.08;;;18.20;;
79414;SDS011;68864;44.972;19.612;2024-03-23T04:11:42;37.83;;;23.85;;
79414;SDS011;68864;44.972;19.612;2024-03-23T04:14:08;36.58;;;21.33;;
79414;SDS011;68864;44.972;19.612;2024-03-23T04:16:35;34.65;;;18.75;;
79414;SDS011;68864;44.972;19.612;2024-03-23T04:19:01;34.47;;;18.42;;
79414;SDS011;68864;44.972;19.612;2024-03-23T04:21:29;33.90;;;20.83;;
79414;SDS011;68864;44.972;19.612;2024-03-23T04:23:56;40.28;;;23.75;;
79414;SDS011;68864;44.972;19.612;2024-03-23T04:26:23;46.03;;;22.63;;
79414;SDS011;68864;44.972;19.612;2024-03-23T04:28:49;51.55;;;26.92;;
79414;SDS011;68864;44.972;19.612;2024-03-23T04:31:16;48.72;;;24.20;;
79414;SDS011;68864;44.972;19.612;2024-03-23T04:33:42;50.17;;;24.48;;
79414;SDS011;68864;44.972;19.612;2024-03-23T04:36:09;47.25;;;24.40;;
79414;SDS011;68864;44.972;19.612;2024-03-23T04:38:35;51.42;;;26.83;;
79414;SDS011;68864;44.972;19.612;2024-03-23T04:41:04;42.38;;;20.92;;
79414;SDS011;68864;44.972;19.612;2024-03-23T04:43:30;37.67;;;20.83;;
79414;SDS011;68864;44.972;19.612;2024-03-23T04:45:57;37.72;;;18.13;;
79414;SDS011;68864;44.972;19.612;2024-03-23T04:48:24;43.22;;;26.02;;
79414;SDS011;68864;44.972;19.612;2024-03-23T04:50:54;39.50;;;21.38;;
79414;SDS011;68864;44.972;19.612;2024-03-23T04:53:20;38.72;;;18.40;;
79414;SDS011;68864;44.972;19.612;2024-03-23T04:55:50;38.58;;;17.80;;
79414;SDS011;68864;44.972;19.612;2024-03-23T04:58:18;37.08;;;18.50;;
79414;SDS011;68864;44.972;19.612;2024-03-23T05:00:44;32.72;;;17.27;;
79414;SDS011;68864;44.972;19.612;2024-03-23T05:03:11;34.88;;;16.58;;
79414;SDS011;68864;44.972;19.612;2024-03-23T05:05:37;33.15;;;17.05;;
79414;SDS011;68864;44.972;19.612;2024-03-23T05:08:04;33.50;;;16.20;;
79414;SDS011;68864;44.972;19.612;2024-03-23T05:10:31;37.85;;;18.60;;
79414;SDS011;68864;44.972;19.612;2024-03-23T05:12:59;32.60;;;21.35;;
79414;SDS011;68864;44.972;19.612;2024-03-23T05:15:26;34.67;;;15.82;;
79414;SDS011;68864;44.972;19.612;2024-03-23T05:17:53;31.90;;;17.00;;
79414;SDS011;68864;44.972;19.612;2024-03-23T05:20:19;30.23;;;15.10;;
79414;SDS011;68864;44.972;19.612;2024-03-23T05:22:46;28.33;;;15.05;;
79414;SDS011;68864;44.972;19.612;2024-03-23T05:25:12;33.30;;;17.83;;
79414;SDS011;68864;44.972;19.612;2024-03-23T05:27:41;31.63;;;17.27;;
79414;SDS011;68864;44.972;19.612;2024-03-23T05:30:07;40.75;;;17.63;;
79414;SDS011;68864;44.972;19.612;2024-03-23T05:32:37;42.08;;;20.35;;
79414;SDS011;68864;44.972;19.612;2024-03-23T05:35:06;47.10;;;28.88;;
79414;SDS011;68864;44.972;19.612;2024-03-23T05:37:33;40.33;;;21.42;;
79414;SDS011;68864;44.972;19.612;2024-03-23T05:39:59;48.88;;;24.83;;
79414;SDS011;68864;44.972;19.612;2024-03-23T05:42:28;48.67;;;24.33;;
79414;SDS011;68864;44.972;19.612;2024-03-23T05:44:56;45.72;;;24.58;;
79414;SDS011;68864;44.972;19.612;2024-03-23T05:47:22;43.20;;;22.52;;
79414;SDS011;68864;44.972;19.612;2024-03-23T05:49:50;50.40;;;30.70;;
79414;SDS011;68864;44.972;19.612;2024-03-23T05:52:17;44.20;;;24.65;;
79414;SDS011;68864;44.972;19.612;2024-03-23T05:54:46;40.28;;;24.73;;
79414;SDS011;68864;44.972;19.612;2024-03-23T05:57:12;48.53;;;30.38;;
79414;SDS011;68864;44.972;19.612;2024-03-23T05:59:39;39.13;;;22.70;;
79414;SDS011;68864;44.972;19.612;2024-03-23T06:02:05;35.10;;;20.17;;
79414;SDS011;68864;44.972;19.612;2024-03-23T06:04:32;51.88;;;30.58;;
79414;SDS011;68864;44.972;19.612;2024-03-23T06:07:00;38.70;;;23.05;;
79414;SDS011;68864;44.972;19.612;2024-03-23T06:09:27;39.30;;;22.20;;
79414;SDS011;68864;44.972;19.612;2024-03-23T06:11:56;38.65;;;22.20;;
79414;SDS011;68864;44.972;19.612;2024-03-23T06:16:49;42.30;;;24.20;;
79414;SDS011;68864;44.972;19.612;2024-03-23T06:24:11;39.88;;;22.40;;
79414;SDS011;68864;44.972;19.612;2024-03-23T06:26:37;41.45;;;24.08;;
79414;SDS011;68864;44.972;19.612;2024-03-23T06:29:04;45.72;;;26.73;;
79414;SDS011;68864;44.972;19.612;2024-03-23T06:31:30;45.33;;;30.90;;
79414;SDS011;68864;44.972;19.612;2024-03-23T06:33:57;40.38;;;28.40;;
79414;SDS011;68864;44.972;19.612;2024-03-23T06:36:23;54.33;;;28.63;;
79414;SDS011;68864;44.972;19.612;2024-03-23T06:38:50;51.30;;;30.10;;
79414;SDS011;68864;44.972;19.612;2024-03-23T06:41:18;43.38;;;27.73;;
79414;SDS011;68864;44.972;19.612;2024-03-23T06:43:45;42.20;;;28.23;;
79414;SDS011;68864;44.972;19.612;2024-03-23T06:46:11;44.85;;;28.15;;
79414;SDS011;68864;44.972;19.612;2024-03-23T06:48:38;38.55;;;24.17;;
79414;SDS011;68864;44.972;19.612;2024-03-23T06:51:04;38.58;;;24.27;;
79414;SDS011;68864;44.972;19.612;2024-03-23T06:53:32;39.97;;;24.33;;
79414;SDS011;68864;44.972;19.612;2024-03-23T06:55:58;39.67;;;24.60;;
79414;SDS011;68864;44.972;19.612;2024-03-23T06:58:27;40.15;;;25.45;;
79414;SDS011;68864;44.972;19.612;2024-03-23T07:00:53;38.95;;;24.38;;
79414;SDS011;68864;44.972;19.612;2024-03-23T07:03:20;43.00;;;29.13;;
79414;SDS011;68864;44.972;19.612;2024-03-23T07:05:47;40.97;;;27.67;;
79414;SDS011;68864;44.972;19.612;2024-03-23T07:08:14;40.05;;;26.70;;
79414;SDS011;68864;44.972;19.612;2024-03-23T07:10:46;37.70;;;25.42;;
79414;SDS011;68864;44.972;19.612;2024-03-23T07:13:13;36.95;;;23.58;;
79414;SDS011;68864;44.972;19.612;2024-03-23T07:15:40;34.70;;;22.15;;
79414;SDS011;68864;44.972;19.612;2024-03-23T07:18:07;33.03;;;23.13;;
79414;SDS011;68864;44.972;19.612;2024-03-23T07:20:34;32.05;;;22.02;;
79414;SDS011;68864;44.972;19.612;2024-03-23T07:23:01;30.08;;;21.63;;
79414;SDS011;68864;44.972;19.612;2024-03-23T07:25:27;25.95;;;19.10;;
79414;SDS011;68864;44.972;19.612;2024-03-23T07:27:54;32.75;;;23.83;;
79414;SDS011;68864;44.972;19.612;2024-03-23T07:30:20;27.48;;;20.38;;
79414;SDS011;68864;44.972;19.612;2024-03-23T07:32:49;45.67;;;26.48;;
79414;SDS011;68864;44.972;19.612;2024-03-23T07:35:15;27.90;;;20.73;;
79414;SDS011;68864;44.972;19.612;2024-03-23T07:37:42;29.77;;;19.30;;
79414;SDS011;68864;44.972;19.612;2024-03-23T07:40:08;31.55;;;20.65;;
79414;SDS011;68864;44.972;19.612;2024-03-23T07:42:37;23.48;;;17.20;;
79414;SDS011;68864;44.972;19.612;2024-03-23T07:45:03;25.50;;;18.17;;
79414;SDS011;68864;44.972;19.612;2024-03-23T07:47:30;34.72;;;18.42;;
79414;SDS011;68864;44.972;19.612;2024-03-23T07:49:58;25.60;;;18.00;;
79414;SDS011;68864;44.972;19.612;2024-03-23T07:52:27;24.73;;;17.70;;
79414;SDS011;68864;44.972;19.612;2024-03-23T07:54:54;22.45;;;17.33;;
79414;SDS011;68864;44.972;19.612;2024-03-23T07:57:21;24.73;;;16.77;;
79414;SDS011;68864;44.972;19.612;2024-03-23T07:59:47;28.63;;;17.52;;
79414;SDS011;68864;44.972;19.612;2024-03-23T08:02:14;22.92;;;16.75;;
79414;SDS011;68864;44.972;19.612;2024-03-23T08:04:40;24.98;;;17.13;;
79414;SDS011;68864;44.972;19.612;2024-03-23T08:07:09;30.20;;;22.83;;
79414;SDS011;68864;44.972;19.612;2024-03-23T08:09:35;31.92;;;17.88;;
79414;SDS011;68864;44.972;19.612;2024-03-23T08:12:02;24.88;;;18.27;;
79414;SDS011;68864;44.972;19.612;2024-03-23T08:14:28;27.27;;;19.42;;
79414;SDS011;68864;44.972;19.612;2024-03-23T08:16:55;25.98;;;16.88;;
79414;SDS011;68864;44.972;19.612;2024-03-23T08:19:21;25.60;;;15.55;;
79414;SDS011;68864;44.972;19.612;2024-03-23T08:21:48;24.23;;;17.13;;
79414;SDS011;68864;44.972;19.612;2024-03-23T08:24:17;24.77;;;17.08;;
79414;SDS011;68864;44.972;19.612;2024-03-23T08:26:44;19.63;;;14.02;;
79414;SDS011;68864;44.972;19.612;2024-03-23T08:29:11;18.98;;;12.48;;
79414;SDS011;68864;44.972;19.612;2024-03-23T08:31:38;22.25;;;14.15;;
79414;SDS011;68864;44.972;19.612;2024-03-23T08:34:04;19.73;;;15.65;;
79414;SDS011;68864;44.972;19.612;2024-03-23T08:36:31;16.10;;;13.30;;
79414;SDS011;68864;44.972;19.612;2024-03-23T08:38:57;22.13;;;15.18;;
79414;SDS011;68864;44.972;19.612;2024-03-23T08:41:26;19.85;;;12.98;;
79414;SDS011;68864;44.972;19.612;2024-03-23T08:43:52;16.98;;;10.57;;
79414;SDS011;68864;44.972;19.612;2024-03-23T08:46:19;17.65;;;12.30;;
79414;SDS011;68864;44.972;19.612;2024-03-23T08:48:45;16.20;;;12.65;;
79414;SDS011;68864;44.972;19.612;2024-03-23T08:51:14;21.70;;;11.38;;
79414;SDS011;68864;44.972;19.612;2024-03-23T08:53:41;16.48;;;10.07;;
79414;SDS011;68864;44.972;19.612;2024-03-23T08:56:09;12.18;;;9.52;;
79414;SDS011;68864;44.972;19.612;2024-03-23T08:58:37;15.43;;;9.43;;
79414;SDS011;68864;44.972;19.612;2024-03-23T09:01:06;14.57;;;9.60;;
79414;SDS011;68864;44.972;19.612;2024-03-23T09:03:33;21.67;;;14.70;;
79414;SDS011;68864;44.972;19.612;2024-03-23T09:06:00;15.30;;;10.48;;
79414;SDS011;68864;44.972;19.612;2024-03-23T09:08:26;14.90;;;9.02;;
79414;SDS011;68864;44.972;19.612;2024-03-23T09:10:54;18.40;;;11.23;;
79414;SDS011;68864;44.972;19.612;2024-03-23T09:13:20;16.73;;;13.73;;
79414;SDS011;68864;44.972;19.612;2024-03-23T09:15:49;16.00;;;9.57;;
79414;SDS011;68864;44.972;19.612;2024-03-23T09:18:16;21.48;;;12.85;;
79414;SDS011;68864;44.972;19.612;2024-03-23T09:20:43;15.55;;;10.27;;
79414;SDS011;68864;44.972;19.612;2024-03-23T09:23:09;12.55;;;7.93;;
79414;SDS011;68864;44.972;19.612;2024-03-23T09:25:36;14.93;;;7.13;;
79414;SDS011;68864;44.972;19.612;2024-03-23T09:28:03;13.50;;;7.82;;
79414;SDS011;68864;44.972;19.612;2024-03-23T09:30:31;12.75;;;7.93;;
79414;SDS011;68864;44.972;19.612;2024-03-23T09:32:59;10.43;;;6.50;;
79414;SDS011;68864;44.972;19.612;2024-03-23T09:35:27;9.13;;;5.47;;
79414;SDS011;68864;44.972;19.612;2024-03-23T09:37:53;13.07;;;6.65;;
79414;SDS011;68864;44.972;19.612;2024-03-23T09:40:20;11.98;;;9.65;;
79414;SDS011;68864;44.972;19.612;2024-03-23T09:42:49;12.73;;;6.78;;
79414;SDS011;68864;44.972;19.612;2024-03-23T09:45:17;11.13;;;6.40;;
79414;SDS011;68864;44.972;19.612;2024-03-23T09:47:46;9.52;;;5.97;;
79414;SDS011;68864;44.972;19.612;2024-03-23T09:50:16;12.68;;;6.40;;
79414;SDS011;68864;44.972;19.612;2024-03-23T09:52:42;9.27;;;6.32;;
79414;SDS011;68864;44.972;19.612;2024-03-23T09:55:09;13.57;;;8.85;;
79414;SDS011;68864;44.972;19.612;2024-03-23T09:57:35;12.82;;;7.93;;
79414;SDS011;68864;44.972;19.612;2024-03-23T10:00:02;12.63;;;5.95;;
79414;SDS011;68864;44.972;19.612;2024-03-23T10:02:28;9.85;;;5.22;;
79414;SDS011;68864;44.972;19.612;2024-03-23T10:04:56;10.30;;;5.60;;
79414;SDS011;68864;44.972;19.612;2024-03-23T10:07:25;13.65;;;6.07;;
79414;SDS011;68864;44.972;19.612;2024-03-23T10:09:53;9.02;;;4.28;;
79414;SDS011;68864;44.972;19.612;2024-03-23T10:12:19;11.23;;;7.18;;
79414;SDS011;68864;44.972;19.612;2024-03-23T10:14:47;7.82;;;3.70;;
79414;SDS011;68864;44.972;19.612;2024-03-23T10:17:15;11.48;;;5.88;;
79414;SDS011;68864;44.972;19.612;2024-03-23T10:19:43;9.55;;;4.35;;
79414;SDS011;68864;44.972;19.612;2024-03-23T10:22:12;7.50;;;3.88;;
79414;SDS011;68864;44.972;19.612;2024-03-23T10:24:41;8.13;;;3.75;;
79414;SDS011;68864;44.972;19.612;2024-03-23T10:27:08;13.23;;;3.85;;
79414;SDS011;68864;44.972;19.612;2024-03-23T10:29:34;10.70;;;4.18;;
79414;SDS011;68864;44.972;19.612;2024-03-23T10:32:08;9.85;;;4.13;;
79414;SDS011;68864;44.972;19.612;2024-03-23T10:34:35;7.55;;;3.28;;
79414;SDS011;68864;44.972;19.612;2024-03-23T10:37:02;7.03;;;2.30;;
79414;SDS011;68864;44.972;19.612;2024-03-23T10:39:30;11.48;;;2.53;;
79414;SDS011;68864;44.972;19.612;2024-03-23T10:42:00;8.57;;;3.78;;
79414;SDS011;68864;44.972;19.612;2024-03-23T10:44:27;6.93;;;3.45;;
79414;SDS011;68864;44.972;19.612;2024-03-23T10:46:56;9.05;;;3.70;;
79414;SDS011;68864;44.972;19.612;2024-03-23T10:49:25;6.28;;;3.90;;
79414;SDS011;68864;44.972;19.612;2024-03-23T10:51:55;6.72;;;2.35;;
79414;SDS011;68864;44.972;19.612;2024-03-23T10:54:22;7.38;;;5.40;;
79414;SDS011;68864;44.972;19.612;2024-03-23T10:56:51;6.57;;;2.30;;
79414;SDS011;68864;44.972;19.612;2024-03-23T10:59:23;9.63;;;2.63;;
79414;SDS011;68864;44.972;19.612;2024-03-23T11:01:54;10.88;;;3.53;;
79414;SDS011;68864;44.972;19.612;2024-03-23T11:04:30;6.57;;;2.80;;
79414;SDS011;68864;44.972;19.612;2024-03-23T11:07:01;8.65;;;4.03;;
79414;SDS011;68864;44.972;19.612;2024-03-23T11:09:40;7.35;;;1.90;;
79414;SDS011;68864;44.972;19.612;2024-03-23T11:12:29;6.50;;;1.85;;
79414;SDS011;68864;44.972;19.612;2024-03-23T11:14:59;5.70;;;1.88;;
79414;SDS011;68864;44.972;19.612;2024-03-23T11:17:28;5.88;;;2.05;;
79414;SDS011;68864;44.972;19.612;2024-03-23T11:19:54;4.80;;;1.52;;
79414;SDS011;68864;44.972;19.612;2024-03-23T11:22:38;7.28;;;1.52;;
79414;SDS011;68864;44.972;19.612;2024-03-23T11:25:15;16.23;;;2.03;;
79414;SDS011;68864;44.972;19.612;2024-03-23T11:27:47;7.60;;;1.20;;
79414;SDS011;68864;44.972;19.612;2024-03-23T11:30:16;9.88;;;1.58;;
79414;SDS011;68864;44.972;19.612;2024-03-23T11:32:45;6.50;;;1.40;;
79414;SDS011;68864;44.972;19.612;2024-03-23T11:35:25;9.07;;;2.25;;
79414;SDS011;68864;44.972;19.612;2024-03-23T11:38:05;7.50;;;1.60;;
79414;SDS011;68864;44.972;19.612;2024-03-23T11:40:32;6.65;;;2.08;;
79414;SDS011;68864;44.972;19.612;2024-03-23T11:43:00;5.50;;;1.70;;
79414;SDS011;68864;44.972;19.612;2024-03-23T11:45:28;5.53;;;2.28;;
79414;SDS011;68864;44.972;19.612;2024-03-23T11:48:06;5.47;;;1.30;;
79414;SDS011;68864;44.972;19.612;2024-03-23T11:50:34;5.68;;;1.70;;
79414;SDS011;68864;44.972;19.612;2024-03-23T11:53:09;5.68;;;2.05;;
79414;SDS011;68864;44.972;19.612;2024-03-23T11:55:47;7.72;;;1.70;;
79414;SDS011;68864;44.972;19.612;2024-03-23T11:58:15;5.82;;;3.17;;
79414;SDS011;68864;44.972;19.612;2024-03-23T12:00:48;5.82;;;3.38;;
79414;SDS011;68864;44.972;19.612;2024-03-23T12:03:17;8.25;;;6.18;;
79414;SDS011;68864;44.972;19.612;2024-03-23T12:05:47;10.27;;;2.00;;
79414;SDS011;68864;44.972;19.612;2024-03-23T12:08:21;7.30;;;1.35;;
79414;SDS011;68864;44.972;19.612;2024-03-23T12:10:49;64.22;;;15.43;;
79414;SDS011;68864;44.972;19.612;2024-03-23T12:13:18;6.63;;;2.30;;
79414;SDS011;68864;44.972;19.612;2024-03-23T12:15:48;7.13;;;2.00;;
79414;SDS011;68864;44.972;19.612;2024-03-23T12:18:17;5.40;;;1.90;;
79414;SDS011;68864;44.972;19.612;2024-03-23T12:20:49;8.38;;;2.33;;
79414;SDS011;68864;44.972;19.612;2024-03-23T12:23:16;5.20;;;2.10;;
79414;SDS011;68864;44.972;19.612;2024-03-23T12:25:42;6.95;;;1.65;;
79414;SDS011;68864;44.972;19.612;2024-03-23T12:28:09;6.82;;;4.70;;
79414;SDS011;68864;44.972;19.612;2024-03-23T12:30:35;4.38;;;1.70;;
79414;SDS011;68864;44.972;19.612;2024-03-23T12:33:06;4.65;;;1.25;;
79414;SDS011;68864;44.972;19.612;2024-03-23T12:35:32;4.25;;;1.58;;
79414;SDS011;68864;44.972;19.612;2024-03-23T12:38:00;4.57;;;1.13;;
79414;SDS011;68864;44.972;19.612;2024-03-23T12:40:26;6.47;;;1.40;;
79414;SDS011;68864;44.972;19.612;2024-03-23T12:42:53;4.05;;;1.40;;
79414;SDS011;68864;44.972;19.612;2024-03-23T12:45:19;5.05;;;1.63;;
79414;SDS011;68864;44.972;19.612;2024-03-23T12:47:46;4.63;;;1.73;;
79414;SDS011;68864;44.972;19.612;2024-03-23T12:50:14;12.52;;;2.05;;
79414;SDS011;68864;44.972;19.612;2024-03-23T12:52:41;5.10;;;0.93;;
79414;SDS011;68864;44.972;19.612;2024-03-23T12:55:08;4.47;;;0.93;;
79414;SDS011;68864;44.972;19.612;2024-03-23T12:57:35;7.75;;;1.20;;
79414;SDS011;68864;44.972;19.612;2024-03-23T13:00:01;5.38;;;1.65;;
79414;SDS011;68864;44.972;19.612;2024-03-23T13:02:29;5.88;;;0.80;;
79414;SDS011;68864;44.972;19.612;2024-03-23T13:04:55;9.30;;;2.33;;
79414;SDS011;68864;44.972;19.612;2024-03-23T13:07:24;5.45;;;0.80;;
79414;SDS011;68864;44.972;19.612;2024-03-23T13:09:51;3.78;;;1.40;;
79414;SDS011;68864;44.972;19.612;2024-03-23T13:12:18;7.13;;;3.65;;
79414;SDS011;68864;44.972;19.612;2024-03-23T13:14:45;5.60;;;3.00;;
79414;SDS011;68864;44.972;19.612;2024-03-23T13:17:12;5.43;;;1.55;;
79414;SDS011;68864;44.972;19.612;2024-03-23T13:19:39;4.65;;;1.45;;
79414;SDS011;68864;44.972;19.612;2024-03-23T13:22:06;7.60;;;1.15;;
79414;SDS011;68864;44.972;19.612;2024-03-23T13:24:34;5.00;;;1.58;;
79414;SDS011;68864;44.972;19.612;2024-03-23T13:27:01;8.10;;;1.60;;
79414;SDS011;68864;44.972;19.612;2024-03-23T13:29:27;5.95;;;1.75;;
79414;SDS011;68864;44.972;19.612;2024-03-23T13:31:54;4.65;;;1.40;;
79414;SDS011;68864;44.972;19.612;2024-03-23T13:34:20;4.20;;;1.85;;
79414;SDS011;68864;44.972;19.612;2024-03-23T13:36:47;4.72;;;3.92;;
79414;SDS011;68864;44.972;19.612;2024-03-23T13:39:14;5.78;;;1.10;;
79414;SDS011;68864;44.972;19.612;2024-03-23T13:41:44;7.78;;;3.97;;
79414;SDS011;68864;44.972;19.612;2024-03-23T13:44:11;3.53;;;0.77;;
79414;SDS011;68864;44.972;19.612;2024-03-23T13:46:39;7.25;;;3.92;;
79414;SDS011;68864;44.972;19.612;2024-03-23T13:49:08;4.45;;;0.90;;
79414;SDS011;68864;44.972;19.612;2024-03-23T13:51:52;10.95;;;2.28;;
79414;SDS011;68864;44.972;19.612;2024-03-23T13:54:18;6.68;;;2.53;;
79414;SDS011;68864;44.972;19.612;2024-03-23T13:56:47;9.60;;;3.85;;
79414;SDS011;68864;44.972;19.612;2024-03-23T13:59:13;3.70;;;1.50;;
79414;SDS011;68864;44.972;19.612;2024-03-23T14:01:40;6.65;;;3.03;;
79414;SDS011;68864;44.972;19.612;2024-03-23T14:04:07;7.70;;;2.30;;
79414;SDS011;68864;44.972;19.612;2024-03-23T14:06:34;4.45;;;1.25;;
79414;SDS011;68864;44.972;19.612;2024-03-23T14:09:00;4.72;;;1.33;;
79414;SDS011;68864;44.972;19.612;2024-03-23T14:11:28;6.35;;;1.50;;
79414;SDS011;68864;44.972;19.612;2024-03-23T14:13:56;4.25;;;0.63;;
79414;SDS011;68864;44.972;19.612;2024-03-23T14:16:23;5.10;;;1.10;;
79414;SDS011;68864;44.972;19.612;2024-03-23T14:18:49;5.10;;;1.58;;
79414;SDS011;68864;44.972;19.612;2024-03-23T14:21:16;11.88;;;1.88;;
79414;SDS011;68864;44.972;19.612;2024-03-23T14:23:43;6.47;;;4.03;;
79414;SDS011;68864;44.972;19.612;2024-03-23T14:26:10;6.57;;;2.38;;
79414;SDS011;68864;44.972;19.612;2024-03-23T14:28:36;6.35;;;1.00;;
79414;SDS011;68864;44.972;19.612;2024-03-23T14:31:06;5.00;;;1.35;;
79414;SDS011;68864;44.972;19.612;2024-03-23T14:33:35;6.32;;;0.90;;
79414;SDS011;68864;44.972;19.612;2024-03-23T14:36:03;3.22;;;1.10;;
79414;SDS011;68864;44.972;19.612;2024-03-23T14:38:29;4.85;;;1.45;;
79414;SDS011;68864;44.972;19.612;2024-03-23T14:40:57;7.57;;;1.35;;
79414;SDS011;68864;44.972;19.612;2024-03-23T14:43:24;3.72;;;0.40;;
79414;SDS011;68864;44.972;19.612;2024-03-23T14:46:08;2.17;;;0.47;;
79414;SDS011;68864;44.972;19.612;2024-03-23T14:48:35;6.50;;;1.77;;
79414;SDS011;68864;44.972;19.612;2024-03-23T14:51:03;4.65;;;0.88;;
79414;SDS011;68864;44.972;19.612;2024-03-23T14:53:30;3.80;;;1.88;;
79414;SDS011;68864;44.972;19.612;2024-03-23T14:55:58;7.38;;;0.80;;
79414;SDS011;68864;44.972;19.612;2024-03-23T14:58:25;3.50;;;1.35;;
79414;SDS011;68864;44.972;19.612;2024-03-23T15:00:52;7.10;;;2.83;;
79414;SDS011;68864;44.972;19.612;2024-03-23T15:03:20;9.20;;;3.70;;
79414;SDS011;68864;44.972;19.612;2024-03-23T15:05:53;6.85;;;3.10;;
79414;SDS011;68864;44.972;19.612;2024-03-23T15:08:20;12.80;;;5.95;;
79414;SDS011;68864;44.972;19.612;2024-03-23T15:10:47;11.50;;;4.90;;
79414;SDS011;68864;44.972;19.612;2024-03-23T15:13:14;8.05;;;2.53;;
79414;SDS011;68864;44.972;19.612;2024-03-23T15:15:41;10.00;;;4.00;;
79414;SDS011;68864;44.972;19.612;2024-03-23T15:18:09;9.07;;;5.28;;
79414;SDS011;68864;44.972;19.612;2024-03-23T15:20:39;7.60;;;3.17;;
79414;SDS011;68864;44.972;19.612;2024-03-23T15:23:05;6.85;;;1.75;;